Time;durP1;ratioP1;P1;durP2;ratioP2;P2;SDS_P1;SDS_P2;PMS_P1;PMS_P2;Temp;Humidity;BMP_temperature;BMP_pressure;BME280_temperature;BME280_humidity;BME280_pressure;Samples;Min_cycle;Max_cycle;Signal;HPM_P1;HPM_P2
2023/07/10 00:01:47;;;;;;;26.67;3.40;;;41.20;22.80;;;;;;5056486;28;20107;-58
2023/07/10 00:04:18;;;;;;;39.17;4.45;;;41.10;23.90;;;;;;5052199;28;20503;-59
2023/07/10 00:06:46;;;;;;;31.67;4.32;;;41.10;25.00;;;;;;5051984;28;20092;-62
2023/07/10 00:09:13;;;;;;;39.22;3.85;;;41.00;26.00;;;;;;5051914;28;20021;-61
2023/07/10 00:11:41;;;;;;;27.60;3.75;;;40.90;26.20;;;;;;5053501;28;20526;-57
2023/07/10 00:14:16;;;;;;;15.82;3.45;;;40.90;25.90;;;;;;5051357;28;20035;-61
2023/07/10 00:16:42;;;;;;;;;;;40.90;25.80;;;;;;5052558;28;20485;-62
2023/07/10 00:19:13;;;;;;;24.35;6.53;;;40.80;26.00;;;;;;5054308;28;19908;-58
2023/07/10 00:21:40;;;;;;;42.60;5.70;;;40.80;25.80;;;;;;5034180;28;20156;-59
2023/07/10 00:24:07;;;;;;;24.88;3.42;;;40.80;25.70;;;;;;5036955;28;21636;-60
2023/07/10 00:26:37;;;;;;;41.63;4.18;;;40.70;25.30;;;;;;5031242;28;20021;-64
2023/07/10 00:29:18;;;;;;;23.95;3.58;;;40.50;25.50;;;;;;5031095;28;20112;-59
2023/07/10 00:31:44;;;;;;;22.10;3.17;;;40.40;25.00;;;;;;5035591;28;20045;-59
2023/07/10 00:34:16;;;;;;;26.05;4.35;;;40.40;25.70;;;;;;5031160;28;20017;-60
2023/07/10 00:36:43;;;;;;;26.48;6.00;;;40.30;25.80;;;;;;5028776;28;20044;-59
2023/07/10 00:39:22;;;;;;;39.25;6.10;;;40.30;26.40;;;;;;5032088;28;20052;-62
2023/07/10 00:42:01;;;;;;;20.95;5.70;;;40.20;25.90;;;;;;5032423;28;20499;-58
2023/07/10 00:44:32;;;;;;;25.67;5.10;;;40.10;26.90;;;;;;5031929;28;20477;-60
2023/07/10 00:47:14;;;;;;;36.08;4.60;;;40.20;26.70;;;;;;5029482;28;20018;-58
2023/07/10 00:49:48;;;;;;;14.90;4.15;;;40.10;26.30;;;;;;5030788;28;20417;-60
2023/07/10 00:52:20;;;;;;;22.10;4.35;;;40.10;27.00;;;;;;5032074;28;20018;-64
2023/07/10 00:54:53;;;;;;;20.85;4.10;;;40.10;27.60;;;;;;5032105;28;20485;-63
2023/07/10 00:57:41;;;;;;;21.08;4.50;;;39.90;27.10;;;;;;5031495;28;20501;-60
2023/07/10 01:00:19;;;;;;;20.90;7.97;;;39.80;27.10;;;;;;5033992;28;20095;-64
2023/07/10 01:02:46;;;;;;;22.20;11.60;;;39.70;26.60;;;;;;5030138;28;20446;-55
2023/07/10 01:05:13;;;;;;;30.58;16.13;;;39.70;27.50;;;;;;5032525;28;20052;-61
2023/07/10 01:07:46;;;;;;;33.80;18.55;;;39.70;28.50;;;;;;5031938;28;20040;-64
2023/07/10 01:10:12;;;;;;;25.88;8.00;;;39.60;27.00;;;;;;5031064;28;20017;-65
2023/07/10 01:12:42;;;;;;;29.17;14.85;;;39.60;26.30;;;;;;5032271;28;20024;-63
2023/07/10 01:15:10;;;;;;;19.25;7.97;;;39.50;26.10;;;;;;5032110;28;20023;-63
2023/07/10 01:17:37;;;;;;;17.40;4.97;;;39.50;26.50;;;;;;5032217;28;20079;-66
2023/07/10 01:20:35;;;;;;;25.42;7.00;;;39.40;27.50;;;;;;5038281;28;20160;-61
2023/07/10 01:23:03;;;;;;;19.35;4.30;;;39.40;28.60;;;;;;5051718;28;20024;-63
2023/07/10 01:25:35;;;;;;;21.20;4.55;;;39.40;28.90;;;;;;5050209;28;20322;-61
2023/07/10 01:28:09;;;;;;;18.60;4.20;;;39.30;29.10;;;;;;5050880;28;20013;-59
2023/07/10 01:30:39;;;;;;;20.38;4.15;;;39.20;28.20;;;;;;5058255;28;20064;-59
2023/07/10 01:33:13;;;;;;;24.58;4.72;;;39.20;29.10;;;;;;5049538;28;20032;-61
2023/07/10 01:35:40;;;;;;;17.00;4.20;;;39.10;29.30;;;;;;5050200;28;20758;-59
2023/07/10 01:38:12;;;;;;;19.52;5.13;;;39.10;28.60;;;;;;5049575;28;20021;-59
2023/07/10 01:40:40;;;;;;;26.20;4.22;;;39.00;28.60;;;;;;5050284;28;20440;-59
2023/07/10 01:43:10;;;;;;;20.23;3.60;;;38.90;28.80;;;;;;5048829;28;20505;-55
2023/07/10 01:45:42;;;;;;;20.23;4.00;;;38.80;29.50;;;;;;5049995;28;20105;-60
2023/07/10 01:48:09;;;;;;;15.55;3.67;;;38.80;29.60;;;;;;5049206;28;20021;-61
2023/07/10 01:50:36;;;;;;;15.07;3.78;;;38.70;29.80;;;;;;5047962;28;20009;-62
2023/07/10 01:53:03;;;;;;;17.65;4.20;;;38.80;30.10;;;;;;5050287;28;20476;-62
2023/07/10 01:55:33;;;;;;;15.07;3.80;;;38.70;29.60;;;;;;5050061;28;20021;-56
2023/07/10 01:58:00;;;;;;;11.55;4.03;;;38.70;29.90;;;;;;5048776;28;20013;-59
2023/07/10 02:00:27;;;;;;;20.95;3.72;;;38.60;29.60;;;;;;5051736;28;20150;-58
2023/07/10 02:02:53;;;;;;;16.15;4.47;;;38.50;30.00;;;;;;5050953;28;20100;-57
2023/07/10 02:05:19;;;;;;;12.02;3.92;;;38.50;29.40;;;;;;5052595;28;20009;-59
2023/07/10 02:07:46;;;;;;;13.15;3.55;;;38.40;29.00;;;;;;5048708;28;20058;-58
2023/07/10 02:10:12;;;;;;;13.73;3.60;;;38.30;28.60;;;;;;5049792;28;20031;-59
2023/07/10 02:12:39;;;;;;;18.95;3.88;;;38.30;28.90;;;;;;5049020;28;20111;-54
2023/07/10 02:15:05;;;;;;;13.48;3.17;;;38.10;29.00;;;;;;5049814;28;20053;-61
2023/07/10 02:17:32;;;;;;;17.00;4.13;;;38.10;28.50;;;;;;5049382;28;20057;-55
2023/07/10 02:19:58;;;;;;;18.08;3.60;;;38.00;28.20;;;;;;5047281;28;20071;-64
2023/07/10 02:22:25;;;;;;;15.70;2.83;;;37.90;27.90;;;;;;5050730;28;20060;-58
2023/07/10 02:24:51;;;;;;;19.20;3.75;;;37.80;27.70;;;;;;5049297;28;20047;-62
2023/07/10 02:27:17;;;;;;;12.15;3.15;;;37.80;27.70;;;;;;5051103;28;20043;-59
2023/07/10 02:29:44;;;;;;;15.55;3.13;;;37.80;26.90;;;;;;5049659;28;20047;-54
2023/07/10 02:32:11;;;;;;;12.35;3.20;;;37.70;26.60;;;;;;5056036;28;20056;-58
2023/07/10 02:34:37;;;;;;;17.15;4.05;;;37.70;26.80;;;;;;5052009;28;20127;-60
2023/07/10 02:37:04;;;;;;;16.98;4.90;;;37.60;27.10;;;;;;5049552;28;20106;-63
2023/07/10 02:39:31;;;;;;;16.85;4.70;;;37.60;27.70;;;;;;5049972;28;20053;-58
2023/07/10 02:41:57;;;;;;;14.98;3.90;;;37.50;27.90;;;;;;5050952;28;20077;-60
2023/07/10 02:44:23;;;;;;;17.60;4.20;;;37.50;27.70;;;;;;5050507;28;20055;-60
2023/07/10 02:46:50;;;;;;;14.40;3.65;;;37.40;28.00;;;;;;5046334;28;20056;-56
2023/07/10 02:49:16;;;;;;;10.45;3.55;;;37.30;28.30;;;;;;5047760;28;20048;-62
2023/07/10 02:51:43;;;;;;;15.30;3.20;;;37.20;28.20;;;;;;5049030;28;20058;-59
2023/07/10 02:54:13;;;;;;;34.45;4.65;;;37.10;28.20;;;;;;5047852;28;20486;-57
2023/07/10 02:56:40;;;;;;;55.67;6.35;;;37.10;28.40;;;;;;5051700;28;20590;-59
2023/07/10 02:59:06;;;;;;;17.60;4.10;;;37.00;28.60;;;;;;5049796;28;20050;-57
2023/07/10 03:01:33;;;;;;;11.73;3.38;;;37.00;28.70;;;;;;5049739;28;20045;-53
2023/07/10 03:03:59;;;;;;;16.83;3.38;;;36.90;27.90;;;;;;5049354;28;20126;-56
2023/07/10 03:06:25;;;;;;;17.65;3.67;;;36.80;27.90;;;;;;5048744;28;20104;-57
2023/07/10 03:08:52;;;;;;;16.48;3.50;;;36.70;28.30;;;;;;5050510;28;20055;-56
2023/07/10 03:11:20;;;;;;;10.68;3.17;;;36.60;28.60;;;;;;5048070;28;20093;-57
2023/07/10 03:13:46;;;;;;;15.80;3.67;;;36.60;28.70;;;;;;5054244;28;20792;-58
2023/07/10 03:16:14;;;;;;;14.55;4.18;;;36.40;28.60;;;;;;5054899;28;20057;-60
2023/07/10 03:18:41;;;;;;;12.15;2.70;;;36.30;28.50;;;;;;5057811;28;20059;-61
2023/07/10 03:21:08;;;;;;;18.88;4.15;;;36.30;28.40;;;;;;5056206;28;20239;-59
2023/07/10 03:23:36;;;;;;;11.82;3.63;;;36.20;28.50;;;;;;5058027;28;20072;-56
2023/07/10 03:26:03;;;;;;;12.95;3.58;;;36.10;28.50;;;;;;5054827;28;20598;-57
2023/07/10 03:28:35;;;;;;;17.38;3.92;;;36.10;28.90;;;;;;5054975;28;20599;-61
2023/07/10 03:31:02;;;;;;;15.05;3.35;;;36.00;29.20;;;;;;5055226;28;20059;-56
2023/07/10 03:33:28;;;;;;;15.48;3.65;;;35.90;29.70;;;;;;5055787;28;20577;-59
2023/07/10 03:36:00;;;;;;;18.85;3.80;;;35.80;30.70;;;;;;5056784;28;20058;-61
2023/07/10 03:38:27;;;;;;;27.23;4.28;;;35.70;31.40;;;;;;5054059;28;20064;-59
2023/07/10 03:40:56;;;;;;;27.55;4.28;;;35.70;31.70;;;;;;5055577;28;20426;-57
2023/07/10 03:43:23;;;;;;;14.68;3.90;;;35.70;32.70;;;;;;5059074;28;20563;-60
2023/07/10 03:45:49;;;;;;;22.15;3.33;;;35.70;33.20;;;;;;5052317;28;20134;-60
2023/07/10 03:48:16;;;;;;;19.92;4.53;;;35.70;33.30;;;;;;5052291;28;20047;-63
2023/07/10 03:50:42;;;;;;;17.98;4.25;;;35.70;33.80;;;;;;5046752;28;20050;-59
2023/07/10 03:53:09;;;;;;;19.35;4.22;;;35.60;33.80;;;;;;5050677;28;20077;-57
2023/07/10 03:55:35;;;;;;;15.98;3.88;;;35.50;34.40;;;;;;5053276;28;20183;-61
2023/07/10 03:58:02;;;;;;;18.08;3.60;;;35.40;35.50;;;;;;5047305;28;20070;-63
2023/07/10 04:00:28;;;;;;;13.73;4.50;;;35.30;36.30;;;;;;5052104;28;20072;-57
2023/07/10 04:02:54;;;;;;;25.45;6.80;;;35.20;36.80;;;;;;5057817;28;20532;-59
2023/07/10 04:05:21;;;;;;;33.00;5.32;;;35.20;37.30;;;;;;5055424;28;20076;-54
2023/07/10 04:07:47;;;;;;;19.63;4.68;;;35.10;37.70;;;;;;5056571;28;20067;-53
2023/07/10 04:10:14;;;;;;;17.95;4.45;;;35.00;38.00;;;;;;5056039;28;20389;-53
2023/07/10 04:12:42;;;;;;;17.27;3.67;;;34.90;38.10;;;;;;5055354;28;20061;-60
2023/07/10 04:15:09;;;;;;;17.95;4.50;;;34.90;38.20;;;;;;5055854;28;20528;-55
2023/07/10 04:17:35;;;;;;;14.60;4.57;;;34.80;38.20;;;;;;5054711;28;20066;-57
2023/07/10 04:20:03;;;;;;;16.83;4.50;;;34.80;38.50;;;;;;5053263;28;20107;-55
2023/07/10 04:22:29;;;;;;;16.67;4.28;;;34.90;37.90;;;;;;5054107;28;20048;-58
2023/07/10 04:25:03;;;;;;;16.08;3.58;;;34.90;37.60;;;;;;5053580;28;20062;-56
2023/07/10 04:27:30;;;;;;;17.63;4.45;;;34.90;37.40;;;;;;5052228;28;20148;-57
2023/07/10 04:29:56;;;;;;;16.80;4.90;;;34.90;37.20;;;;;;5052976;28;20056;-60
2023/07/10 04:32:23;;;;;;;21.38;4.88;;;35.00;37.30;;;;;;5052492;28;20514;-58
2023/07/10 04:34:49;;;;;;;22.33;5.40;;;35.00;37.00;;;;;;5051271;28;20057;-58
2023/07/10 04:37:15;;;;;;;20.13;4.32;;;34.90;36.70;;;;;;5049932;28;20065;-60
2023/07/10 04:39:42;;;;;;;19.20;4.10;;;35.00;36.80;;;;;;5050625;28;20082;-60
2023/07/10 04:42:08;;;;;;;17.40;4.63;;;35.10;36.80;;;;;;5051114;28;20060;-56
2023/07/10 04:44:35;;;;;;;19.35;4.60;;;35.00;36.80;;;;;;5051291;28;20102;-58
2023/07/10 04:47:01;;;;;;;24.00;4.85;;;34.90;36.70;;;;;;5049553;28;20549;-59
2023/07/10 04:49:27;;;;;;;25.00;5.10;;;34.90;36.60;;;;;;5050152;28;20058;-58
2023/07/10 04:51:54;;;;;;;20.73;4.40;;;34.90;36.60;;;;;;5051789;28;20115;-59
2023/07/10 04:54:20;;;;;;;21.48;4.90;;;34.80;36.40;;;;;;5051766;28;20424;-58
2023/07/10 04:56:47;;;;;;;23.95;5.03;;;34.70;36.20;;;;;;5053130;28;20054;-58
2023/07/10 04:59:13;;;;;;;27.05;4.35;;;34.60;36.00;;;;;;5052086;28;20115;-58
2023/07/10 05:01:40;;;;;;;24.20;5.07;;;34.60;35.90;;;;;;5056476;28;20113;-57
2023/07/10 05:04:06;;;;;;;22.45;5.07;;;34.70;35.80;;;;;;5050349;28;20060;-59
2023/07/10 05:06:33;;;;;;;20.50;4.50;;;34.70;35.60;;;;;;5050832;28;20052;-57
2023/07/10 05:08:59;;;;;;;26.48;5.13;;;34.40;35.50;;;;;;5049583;28;20103;-57
2023/07/10 05:11:28;;;;;;;27.45;5.13;;;34.50;35.80;;;;;;5050312;28;20371;-56
2023/07/10 05:13:55;;;;;;;33.45;4.70;;;34.50;35.80;;;;;;5050732;28;20065;-58
2023/07/10 05:16:22;;;;;;;32.53;4.85;;;34.50;36.00;;;;;;5050525;28;20062;-52
2023/07/10 05:18:49;;;;;;;24.85;4.65;;;34.40;35.90;;;;;;5052104;28;20068;-57
2023/07/10 05:21:16;;;;;;;32.85;5.40;;;34.40;35.80;;;;;;5048378;28;20555;-57
2023/07/10 05:23:42;;;;;;;29.17;4.57;;;34.40;36.00;;;;;;5050785;28;20159;-57
2023/07/10 05:26:12;;;;;;;29.70;4.78;;;34.40;36.00;;;;;;5052756;28;20111;-57
2023/07/10 05:28:39;;;;;;;31.05;4.47;;;34.40;35.90;;;;;;5051893;28;20124;-55
2023/07/10 05:31:07;;;;;;;15.80;4.85;;;34.30;36.00;;;;;;5051680;28;20158;-59
2023/07/10 05:33:35;;;;;;;19.20;4.60;;;34.30;36.40;;;;;;5050245;28;20079;-57
2023/07/10 05:36:05;;;;;;;16.63;4.30;;;34.20;37.00;;;;;;5049574;28;20137;-58
2023/07/10 05:38:33;;;;;;;20.33;4.18;;;34.20;37.20;;;;;;5047845;28;20052;-57
2023/07/10 05:41:00;;;;;;;17.08;3.70;;;34.10;37.90;;;;;;5050162;28;20079;-58
2023/07/10 05:43:29;;;;;;;15.57;4.57;;;33.90;38.80;;;;;;5049009;28;20114;-57
2023/07/10 05:45:56;;;;;;;21.90;3.67;;;33.90;39.50;;;;;;5048347;28;20058;-55
2023/07/10 05:48:22;;;;;;;24.85;4.95;;;33.90;40.00;;;;;;5048512;28;20074;-57
2023/07/10 05:50:50;;;;;;;21.90;4.22;;;33.70;41.00;;;;;;5048466;28;20715;-57
2023/07/10 05:53:17;;;;;;;15.13;4.13;;;33.70;40.60;;;;;;5045725;28;20070;-54
2023/07/10 05:55:49;;;;;;;19.17;4.55;;;33.70;40.80;;;;;;5049665;28;20060;-55
2023/07/10 05:58:16;;;;;;;22.85;4.28;;;33.60;40.70;;;;;;5051634;28;20061;-56
2023/07/10 06:00:43;;;;;;;18.85;4.35;;;33.60;40.80;;;;;;5049728;28;20518;-55
2023/07/10 06:03:10;;;;;;;23.70;4.57;;;33.60;40.90;;;;;;5051972;28;20060;-56
2023/07/10 06:05:37;;;;;;;22.48;4.90;;;33.60;41.40;;;;;;5048933;28;20092;-61
2023/07/10 06:08:03;;;;;;;17.90;4.45;;;33.60;40.80;;;;;;5047602;28;20062;-57
2023/07/10 06:10:30;;;;;;;23.77;4.55;;;33.60;40.90;;;;;;5048528;28;20064;-56
2023/07/10 06:12:56;;;;;;;17.98;4.70;;;33.60;40.90;;;;;;5038614;28;20526;-60
2023/07/10 06:15:22;;;;;;;14.93;4.30;;;33.60;40.60;;;;;;5048819;28;20072;-59
2023/07/10 06:17:49;;;;;;;20.02;4.70;;;33.50;40.50;;;;;;5049279;28;20068;-57
2023/07/10 06:20:15;;;;;;;18.85;4.50;;;33.40;40.60;;;;;;5046325;28;20087;-61
2023/07/10 06:22:42;;;;;;;20.40;4.47;;;33.40;40.90;;;;;;5049617;28;20055;-62
2023/07/10 06:25:09;;;;;;;18.45;4.55;;;33.40;40.20;;;;;;5049403;28;20064;-57
2023/07/10 06:27:36;;;;;;;13.90;4.00;;;33.30;40.30;;;;;;5048174;28;20076;-58
2023/07/10 06:30:03;;;;;;;14.15;4.10;;;33.30;40.90;;;;;;5047584;28;20538;-58
2023/07/10 06:32:30;;;;;;;18.25;3.88;;;33.30;41.80;;;;;;5047037;28;20068;-58
2023/07/10 06:34:57;;;;;;;22.60;4.38;;;33.20;41.80;;;;;;5049391;28;20072;-58
2023/07/10 06:37:23;;;;;;;13.93;4.25;;;33.10;41.90;;;;;;5048796;28;20106;-57
2023/07/10 06:40:15;;;;;;;24.67;5.10;;;33.00;41.90;;;;;;5048565;28;20128;-57
2023/07/10 06:42:43;;;;;;;17.65;5.93;;;32.90;42.00;;;;;;5048567;28;20111;-55
2023/07/10 06:45:11;;;;;;;22.10;4.88;;;32.90;42.90;;;;;;5047018;28;20165;-57
2023/07/10 06:47:44;;;;;;;23.40;4.90;;;32.80;43.10;;;;;;5045803;28;20054;-57
2023/07/10 06:50:13;;;;;;;21.73;4.70;;;32.70;43.20;;;;;;5046863;28;20601;-58
2023/07/10 06:52:41;;;;;;;20.38;5.22;;;32.70;43.40;;;;;;5039344;28;20524;-59
2023/07/10 06:55:11;;;;;;;20.50;5.35;;;32.60;42.80;;;;;;5046765;28;20559;-57
2023/07/10 06:57:37;;;;;;;21.58;4.72;;;32.60;42.70;;;;;;5048983;28;20150;-56
2023/07/10 07:00:08;;;;;;;23.27;6.22;;;32.60;43.70;;;;;;5048404;28;20073;-57
2023/07/10 07:02:35;;;;;;;27.33;7.65;;;32.60;44.40;;;;;;5048430;28;20083;-57
2023/07/10 07:05:03;;;;;;;35.70;8.07;;;32.40;44.50;;;;;;5047187;28;20425;-58
2023/07/10 07:07:29;;;;;;;33.35;8.57;;;32.40;45.90;;;;;;5045258;28;20170;-58
2023/07/10 07:09:56;;;;;;;29.80;9.15;;;32.20;47.00;;;;;;5046796;28;20496;-58
2023/07/10 07:12:22;;;;;;;30.80;9.38;;;32.20;47.50;;;;;;5048148;28;20073;-55
2023/07/10 07:14:48;;;;;;;27.40;8.68;;;32.30;47.30;;;;;;5047618;28;20068;-57
2023/07/10 07:17:15;;;;;;;26.33;8.50;;;32.20;48.30;;;;;;5048317;28;20156;-57
2023/07/10 07:19:46;;;;;;;26.00;8.10;;;32.20;48.70;;;;;;5047020;28;20520;-56
2023/07/10 07:22:14;;;;;;;26.17;8.52;;;32.20;49.30;;;;;;5046445;28;20123;-58
2023/07/10 07:24:43;;;;;;;24.02;7.20;;;32.10;49.50;;;;;;5045074;28;20074;-56
2023/07/10 07:27:10;;;;;;;31.83;8.43;;;32.00;49.80;;;;;;5049272;28;20065;-56
2023/07/10 07:29:36;;;;;;;28.63;8.35;;;32.00;51.00;;;;;;5047625;28;20078;-57
2023/07/10 07:32:03;;;;;;;29.40;8.85;;;31.80;51.80;;;;;;5047685;28;20620;-55
2023/07/10 07:34:29;;;;;;;22.63;7.35;;;31.80;53.00;;;;;;5047805;28;20064;-58
2023/07/10 07:36:56;;;;;;;23.70;7.40;;;31.80;53.10;;;;;;5047076;28;20080;-58
2023/07/10 07:39:27;;;;;;;23.88;7.15;;;31.70;53.70;;;;;;5049114;28;20080;-56
2023/07/10 07:41:54;;;;;;;30.70;7.20;;;31.60;53.60;;;;;;5045802;28;20434;-58
2023/07/10 07:44:20;;;;;;;26.77;6.90;;;31.60;53.50;;;;;;5045596;28;20074;-60
2023/07/10 07:46:47;;;;;;;34.67;7.22;;;31.50;54.50;;;;;;5045343;28;20082;-59
2023/07/10 07:49:13;;;;;;;26.80;7.28;;;31.40;54.60;;;;;;5046912;28;20146;-55
2023/07/10 07:51:40;;;;;;;43.50;8.27;;;31.50;55.30;;;;;;5046401;28;20209;-54
2023/07/10 07:54:10;;;;;;;29.55;8.25;;;31.40;55.60;;;;;;5046506;28;20090;-57
2023/07/10 07:56:36;;;;;;;31.30;8.23;;;31.40;56.10;;;;;;5047447;28;20068;-55
2023/07/10 07:59:02;;;;;;;26.00;6.88;;;31.30;56.20;;;;;;5046063;28;20072;-54
2023/07/10 08:01:29;;;;;;;22.23;7.20;;;31.40;57.00;;;;;;5049965;28;20090;-57
2023/07/10 08:03:56;;;;;;;28.55;7.30;;;31.30;57.40;;;;;;5051318;28;20461;-59
2023/07/10 08:06:26;;;;;;;31.85;7.72;;;31.20;57.60;;;;;;5051806;28;20071;-56
2023/07/10 08:08:52;;;;;;;31.45;7.32;;;31.10;58.00;;;;;;5049602;28;20534;-57
2023/07/10 08:11:20;;;;;;;31.48;6.63;;;30.90;57.70;;;;;;5051785;28;20167;-57
2023/07/10 08:13:52;;;;;;;26.88;7.55;;;30.90;58.50;;;;;;5039989;28;20669;-58
2023/07/10 08:16:19;;;;;;;27.40;7.78;;;30.70;59.40;;;;;;5049935;28;20534;-57
2023/07/10 08:18:46;;;;;;;27.55;7.65;;;30.60;60.60;;;;;;5039048;28;20159;-54
2023/07/10 08:21:15;;;;;;;31.50;7.80;;;30.50;61.50;;;;;;5047277;28;20113;-54
2023/07/10 08:23:43;;;;;;;31.00;7.43;;;30.50;63.00;;;;;;5048866;28;20128;-58
2023/07/10 08:26:12;;;;;;;27.67;7.55;;;30.40;63.70;;;;;;5050339;28;20734;-62
2023/07/10 08:28:39;;;;;;;29.83;7.57;;;30.40;64.80;;;;;;5047967;28;20070;-55
2023/07/10 08:31:06;;;;;;;26.63;7.03;;;30.30;65.80;;;;;;5050092;28;20224;-53
2023/07/10 08:33:36;;;;;;;30.98;7.13;;;30.30;67.00;;;;;;5052416;28;20445;-55
2023/07/10 08:36:05;;;;;;;29.98;7.20;;;30.20;68.10;;;;;;5049634;28;20436;-56
2023/07/10 08:38:36;;;;;;;30.77;7.53;;;30.30;69.10;;;;;;5050749;28;20089;-56
2023/07/10 08:41:19;;;;;;;31.73;8.00;;;30.20;69.90;;;;;;5049912;28;20179;-60
2023/07/10 08:43:46;;;;;;;30.60;7.70;;;30.20;70.90;;;;;;5063254;28;20079;-55
2023/07/10 08:46:23;;;;;;;33.70;8.02;;;30.20;71.70;;;;;;5046360;28;20145;-58
2023/07/10 08:49:03;;;;;;;30.13;7.68;;;30.10;72.60;;;;;;5048797;28;20072;-56
2023/07/10 08:51:53;;;;;;;24.38;7.35;;;30.10;73.70;;;;;;5049390;28;20073;-54
2023/07/10 08:54:21;;;;;;;33.30;8.05;;;30.10;73.90;;;;;;5048738;28;20068;-58
2023/07/10 08:57:24;;;;;;;30.17;7.75;;;30.20;74.60;;;;;;5049986;28;20139;-55
2023/07/10 09:00:02;;;;;;;27.10;6.38;;;30.20;75.30;;;;;;5050315;28;20087;-58
2023/07/10 09:02:52;;;;;;;26.23;6.65;;;30.10;76.50;;;;;;5053198;28;20085;-58
2023/07/10 09:05:27;;;;;;;28.48;7.22;;;30.10;77.70;;;;;;5050576;28;20601;-57
2023/07/10 09:08:01;;;;;;;26.98;6.95;;;30.10;78.70;;;;;;5049166;28;20171;-55
2023/07/10 09:10:53;;;;;;;31.03;8.77;;;30.10;80.40;;;;;;5049653;28;20107;-57
2023/07/10 09:14:02;;;;;;;26.50;7.15;;;30.00;80.60;;;;;;5049848;28;20104;-58
2023/07/10 09:16:31;;;;;;;35.25;7.28;;;30.10;80.80;;;;;;4984829;28;20544;-56
2023/07/10 09:19:15;;;;;;;25.20;7.40;;;30.10;81.90;;;;;;4984770;28;20235;-58
2023/07/10 09:21:42;;;;;;;27.67;7.30;;;30.10;82.20;;;;;;4984747;28;20127;-56
2023/07/10 09:24:29;;;;;;;24.67;7.18;;;30.10;82.30;;;;;;4984081;28;20087;-60
2023/07/10 09:26:56;;;;;;;30.27;6.85;;;29.90;83.40;;;;;;4968093;28;20070;-57
2023/07/10 09:29:35;;;;;;;24.90;7.20;;;29.90;83.10;;;;;;4984945;28;20219;-55
2023/07/10 09:32:17;;;;;;;38.03;8.57;;;29.90;83.20;;;;;;4982617;28;20149;-55
2023/07/10 09:34:54;;;;;;;27.77;7.88;;;30.00;83.60;;;;;;4985399;28;20088;-57
2023/07/10 09:37:41;;;;;;;30.40;7.97;;;29.90;85.40;;;;;;4983721;28;20138;-56
2023/07/10 09:40:39;;;;;;;29.02;9.25;;;29.90;86.10;;;;;;4983679;28;20102;-55
2023/07/10 09:43:20;;;;;;;36.67;9.55;;;29.90;86.50;;;;;;4926859;29;20089;-56
2023/07/10 09:45:52;;;;;;;37.75;8.63;;;29.90;86.30;;;;;;4924923;29;20565;-55
2023/07/10 09:48:38;;;;;;;31.77;8.57;;;29.90;87.00;;;;;;4963439;28;20185;-57
2023/07/10 09:51:09;;;;;;;30.40;9.05;;;29.80;87.80;;;;;;4964909;28;20079;-58
2023/07/10 09:53:47;;;;;;;67.55;10.90;;;29.90;88.00;;;;;;4949724;28;20148;-61
2023/07/10 09:56:32;;;;;;;35.03;10.60;;;29.90;88.10;;;;;;4965630;28;20237;-58
2023/07/10 09:58:59;;;;;;;40.88;10.85;;;29.90;88.40;;;;;;4965290;28;20094;-56
2023/07/10 10:01:30;;;;;;;39.15;10.05;;;29.80;89.80;;;;;;4965107;28;20179;-55
2023/07/10 10:03:57;;;;;;;38.95;10.70;;;29.70;90.20;;;;;;4965889;28;20087;-57
2023/07/10 10:06:27;;;;;;;37.45;10.57;;;29.70;90.40;;;;;;4948050;28;20631;-57
2023/07/10 10:08:54;;;;;;;43.65;15.05;;;29.70;90.80;;;;;;4963239;28;20421;-55
2023/07/10 10:11:46;;;;;;;37.60;13.27;;;29.60;91.00;;;;;;4966035;28;20576;-57
2023/07/10 10:14:22;;;;;;;35.50;13.27;;;29.60;91.00;;;;;;4965488;28;20303;-57
2023/07/10 10:16:57;;;;;;;33.00;12.60;;;29.50;91.40;;;;;;4965814;28;20179;-55
2023/07/10 10:19:38;;;;;;;35.13;12.48;;;29.40;91.40;;;;;;5005563;28;20109;-57
2023/07/10 10:22:15;;;;;;;36.45;10.50;;;29.60;91.40;;;;;;5027227;28;20186;-56
2023/07/10 10:24:42;;;;;;;39.97;10.95;;;29.70;91.40;;;;;;5025797;28;20579;-52
2023/07/10 10:27:56;;;;;;;34.22;9.50;;;29.60;91.50;;;;;;5027553;28;20103;-57
2023/07/10 10:30:49;;;;;;;36.72;9.40;;;29.60;92.10;;;;;;5028194;28;20078;-55
2023/07/10 10:33:52;;;;;;;39.03;8.98;;;29.60;92.50;;;;;;5028621;28;20110;-56
2023/07/10 10:36:41;;;;;;;36.92;7.93;;;29.50;93.60;;;;;;5011022;28;20097;-56
2023/07/10 10:39:25;;;;;;;30.45;8.85;;;29.50;94.00;;;;;;5029064;28;20085;-56
2023/07/10 10:42:00;;;;;;;29.20;7.70;;;29.50;94.20;;;;;;5027900;28;20098;-56
2023/07/10 10:44:41;;;;;;;37.67;9.27;;;29.40;94.80;;;;;;5026884;28;20116;-57
2023/07/10 10:47:25;;;;;;;36.95;9.27;;;29.40;95.20;;;;;;5029177;28;20136;-52
2023/07/10 10:50:32;;;;;;;43.17;10.82;;;29.40;95.30;;;;;;5028776;28;20165;-54
2023/07/10 10:53:31;;;;;;;45.57;9.93;;;29.40;95.70;;;;;;5010759;28;20078;-56
2023/07/10 10:56:07;;;;;;;64.55;9.50;;;29.40;95.90;;;;;;5027747;28;20169;-55
2023/07/10 10:58:41;;;;;;;36.30;9.95;;;29.40;96.00;;;;;;5025722;28;20692;-56
2023/07/10 11:01:32;;;;;;;32.33;9.20;;;29.40;96.60;;;;;;5028846;28;20175;-52
2023/07/10 11:04:15;;;;;;;27.58;7.95;;;29.40;96.60;;;;;;5027761;28;20814;-55
2023/07/10 11:06:52;;;;;;;33.85;9.02;;;29.30;96.80;;;;;;5028425;28;20379;-56
2023/07/10 11:09:23;;;;;;;;;;;29.20;97.10;;;;;;5027512;28;20073;-56
2023/07/10 11:11:50;;;;;;;27.95;8.10;;;29.20;97.30;;;;;;5029489;28;19994;-58
2023/07/10 11:14:17;;;;;;;31.88;8.73;;;29.20;97.50;;;;;;5028324;28;20089;-57
2023/07/10 11:16:44;;;;;;;34.28;7.93;;;29.10;98.00;;;;;;5028247;28;20130;-55
2023/07/10 11:19:22;;;;;;;37.45;9.10;;;29.10;97.90;;;;;;5029742;28;20121;-58
2023/07/10 11:21:52;;;;;;;26.67;8.00;;;29.20;98.20;;;;;;4993977;28;20142;-56
2023/07/10 11:24:34;;;;;;;28.10;8.63;;;29.10;98.20;;;;;;5027623;28;20485;-62
2023/07/10 11:27:19;;;;;;;36.25;9.30;;;29.10;98.70;;;;;;5025924;28;20088;-56
2023/07/10 11:30:13;;;;;;;30.33;9.70;;;29.10;98.90;;;;;;5028419;28;20077;-59
2023/07/10 11:33:16;;;;;;;32.65;9.13;;;29.10;98.90;;;;;;5026563;28;20140;-56
2023/07/10 11:36:10;;;;;;;36.10;9.18;;;29.00;99.10;;;;;;5028511;28;20080;-55
2023/07/10 11:38:53;;;;;;;36.65;9.23;;;29.00;99.10;;;;;;5030112;28;20165;-54
2023/07/10 11:41:31;;;;;;;39.78;10.57;;;28.90;99.10;;;;;;5031958;28;20124;-56
2023/07/10 11:44:33;;;;;;;33.13;9.27;;;28.80;99.20;;;;;;5029352;28;20177;-52
2023/07/10 11:47:20;;;;;;;31.00;9.18;;;28.80;99.10;;;;;;5030699;28;20086;-55
2023/07/10 11:49:46;;;;;;;38.15;9.68;;;28.80;99.60;;;;;;5030469;28;20086;-53
2023/07/10 11:52:15;;;;;;;1718.03;99.18;;;28.80;99.60;;;;;;5030848;28;20414;-58
2023/07/10 11:54:49;;;;;;;61.10;10.95;;;28.70;99.50;;;;;;5031453;28;20099;-55
2023/07/10 11:57:27;;;;;;;44.25;11.02;;;28.70;99.70;;;;;;5030898;28;20429;-54
2023/07/10 11:59:56;;;;;;;43.75;11.40;;;28.70;99.70;;;;;;5031433;28;20107;-57
2023/07/10 12:02:37;;;;;;;39.75;10.73;;;28.80;99.60;;;;;;5030587;28;20521;-57
2023/07/10 12:05:37;;;;;;;40.40;9.85;;;28.80;99.60;;;;;;5030407;28;20079;-59
2023/07/10 12:08:09;;;;;;;38.55;10.38;;;28.90;99.90;;;;;;5031047;28;20488;-57
2023/07/10 12:10:46;;;;;;;46.28;12.20;;;28.90;99.90;;;;;;5031941;28;20082;-53
2023/07/10 12:13:31;;;;;;;32.03;10.65;;;28.80;99.90;;;;;;5013933;28;20084;-57
2023/07/10 12:16:06;;;;;;;39.15;12.57;;;28.70;99.90;;;;;;5012960;28;20087;-55
2023/07/10 12:18:36;;;;;;;40.10;12.40;;;28.60;99.90;;;;;;5031085;28;20555;-58
2023/07/10 12:21:10;;;;;;;45.08;12.75;;;28.60;99.90;;;;;;5030541;28;20121;-56
2023/07/10 12:23:37;;;;;;;41.13;11.88;;;28.60;99.90;;;;;;5010851;28;20077;-56
2023/07/10 12:26:15;;;;;;;40.85;12.30;;;28.70;99.90;;;;;;5010933;28;20170;-60
2023/07/10 12:28:43;;;;;;;42.40;12.07;;;28.60;99.70;;;;;;5029016;28;20542;-55
2023/07/10 12:31:14;;;;;;;40.72;13.73;;;28.60;99.70;;;;;;5030619;28;20094;-57
2023/07/10 12:33:43;;;;;;;43.05;13.50;;;28.60;99.60;;;;;;5030794;28;20079;-58
2023/07/10 12:36:25;;;;;;;49.25;12.98;;;28.70;99.30;;;;;;5031284;28;20087;-56
2023/07/10 12:38:56;;;;;;;48.92;13.68;;;28.70;98.90;;;;;;5030794;28;20081;-56
2023/07/10 12:41:23;;;;;;;42.78;12.60;;;28.80;98.70;;;;;;5030469;28;20201;-58
2023/07/10 12:43:56;;;;;;;46.53;13.13;;;28.80;98.60;;;;;;5031413;28;20136;-55
2023/07/10 12:46:25;;;;;;;39.35;13.60;;;28.60;98.70;;;;;;5029662;28;20161;-60
2023/07/10 12:49:00;;;;;;;45.92;13.73;;;28.60;98.60;;;;;;5031175;28;20089;-60
2023/07/10 12:51:36;;;;;;;44.53;14.25;;;28.60;98.60;;;;;;5030688;28;20219;-56
2023/07/10 12:54:03;;;;;;;;;;;28.70;98.50;;;;;;5030275;28;20156;-56
2023/07/10 12:56:35;;;;;;;52.72;13.57;;;28.70;98.20;;;;;;5031040;28;19975;-53
2023/07/10 12:59:18;;;;;;;48.50;12.93;;;28.70;98.10;;;;;;5030445;28;20118;-55